Time,TemperatureF,DewpointF,PressureIn,WindDirection,WindDirectionDegrees,WindSpeedMPH,WindSpeedGustMPH,Humidity,HourlyPrecipIn,Conditions,Clouds,dailyrainin,SolarRadiationWatts/m^2,SoftwareType,DateUTC
2013-01-10 00:02:00,36.0,15.0,-100.00,SSW,208,3.0,8.0,42,-99.99,,,0.20,0.000000,,2013-01-10 07:02:00,
2013-01-10 00:22:00,34.0,19.0,-100.00,WSW,237,2.0,10.0,54,-99.99,,,0.20,0.000000,,2013-01-10 07:22:00,
2013-01-10 00:32:00,34.0,19.0,-100.00,WSW,237,2.0,10.0,54,-99.99,,,0.20,0.000000,,2013-01-10 07:32:00,
2013-01-10 00:42:00,34.0,19.0,-100.00,WSW,237,2.0,10.0,54,-99.99,,,0.20,0.000000,,2013-01-10 07:42:00,
2013-01-10 00:52:00,34.0,19.0,-100.00,WSW,237,2.0,10.0,54,-99.99,,,0.20,0.000000,,2013-01-10 07:52:00,
2013-01-10 01:01:00,34.0,19.0,-100.00,WSW,237,2.0,10.0,54,-99.99,,,0.20,0.000000,,2013-01-10 08:01:00,
2013-01-10 01:32:00,35.0,18.0,-100.00,SSW,198,2.0,8.0,49,0.00,,,0.20,0.000000,,2013-01-10 08:32:00,
2013-01-10 01:42:00,35.0,18.0,-100.00,SSW,198,2.0,8.0,49,0.00,,,0.20,0.000000,,2013-01-10 08:42:00,
2013-01-10 01:52:00,35.0,18.0,-100.00,SSW,198,2.0,8.0,49,0.00,,,0.20,0.000000,,2013-01-10 08:52:00,
2013-01-10 02:02:00,35.0,18.0,-100.00,SSW,198,2.0,8.0,49,0.00,,,0.20,0.000000,,2013-01-10 09:02:00,
2013-01-10 02:32:00,37.0,21.0,-100.00,WSW,239,2.0,16.0,51,-99.99,,,0.20,0.000000,,2013-01-10 09:32:00,
2013-01-10 03:33:00,33.0,30.0,-100.00,SW,231,4.0,21.0,89,-99.99,,,0.20,0.000000,,2013-01-10 10:33:00,
2013-01-10 03:42:00,33.0,30.0,-100.00,SW,231,4.0,21.0,89,-99.99,,,0.20,0.000000,,2013-01-10 10:42:00,
2013-01-10 03:52:00,33.0,30.0,-100.00,SW,231,4.0,21.0,89,-99.99,,,0.20,0.000000,,2013-01-10 10:52:00,
2013-01-10 04:02:00,33.0,30.0,-100.00,SW,231,4.0,21.0,89,-99.99,,,0.20,0.000000,,2013-01-10 11:02:00,
2013-01-10 04:23:00,32.0,28.0,-100.00,South,191,1.0,11.0,84,0.00,,,0.20,0.000000,,2013-01-10 11:23:00,
2013-01-10 04:33:00,32.0,28.0,-100.00,South,191,1.0,11.0,84,0.00,,,0.20,0.000000,,2013-01-10 11:33:00,
2013-01-10 04:43:00,32.0,28.0,-100.00,South,191,1.0,11.0,84,0.00,,,0.20,0.000000,,2013-01-10 11:43:00,
2013-01-10 04:53:00,32.0,28.0,-100.00,South,191,1.0,11.0,84,0.00,,,0.20,0.000000,,2013-01-10 11:53:00,
2013-01-10 05:02:00,32.0,28.0,-100.00,South,191,1.0,11.0,84,0.00,,,0.20,0.000000,,2013-01-10 12:02:00,
2013-01-10 07:22:00,31.0,30.0,-100.00,SW,222,3.0,10.0,97,-99.99,,,0.20,0.000000,,2013-01-10 14:22:00,
2013-01-10 07:33:00,31.0,30.0,-100.00,SW,222,3.0,10.0,97,-99.99,,,0.20,0.000000,,2013-01-10 14:33:00,
2013-01-10 07:43:00,31.0,30.0,-100.00,SW,222,3.0,10.0,97,-99.99,,,0.20,0.000000,,2013-01-10 14:43:00,
2013-01-10 07:53:00,31.0,30.0,-100.00,SW,222,3.0,10.0,97,-99.99,,,0.20,0.000000,,2013-01-10 14:53:00,
2013-01-10 08:02:00,31.0,30.0,-100.00,SW,222,3.0,10.0,97,-99.99,,,0.20,0.000000,,2013-01-10 15:02:00,
2013-01-10 08:33:00,31.0,31.0,-100.00,SW,217,4.0,13.0,98,0.00,,,0.20,0.000000,,2013-01-10 15:33:00,
2013-01-10 08:43:00,31.0,31.0,-100.00,SW,217,4.0,13.0,98,0.00,,,0.20,0.000000,,2013-01-10 15:43:00,
2013-01-10 08:53:00,31.0,31.0,-100.00,SW,217,4.0,13.0,98,0.00,,,0.20,0.000000,,2013-01-10 15:53:00,
2013-01-10 09:02:00,31.0,31.0,-100.00,SW,217,4.0,13.0,98,0.00,,,0.20,0.000000,,2013-01-10 16:02:00,
2013-01-10 09:33:00,32.0,31.0,-100.00,ESE,102,2.0,11.0,96,0.00,,,0.20,4.000000,,2013-01-10 16:33:00,
2013-01-10 09:43:00,32.0,31.0,-100.00,ESE,102,2.0,11.0,96,0.00,,,0.20,4.000000,,2013-01-10 16:43:00,
2013-01-10 09:53:00,32.0,31.0,-100.00,ESE,102,2.0,11.0,96,0.00,,,0.20,4.000000,,2013-01-10 16:53:00,
2013-01-10 10:02:00,32.0,31.0,-100.00,ESE,102,2.0,11.0,96,0.00,,,0.20,4.000000,,2013-01-10 17:02:00,
2013-01-10 10:03:00,32.0,31.0,-100.00,WNW,287,3.0,11.0,96,0.00,,,0.20,8.000000,,2013-01-10 17:03:00,
2013-01-10 10:33:00,32.0,31.0,-100.00,WNW,287,3.0,11.0,96,0.00,,,0.20,8.000000,,2013-01-10 17:33:00,
2013-01-10 10:43:00,32.0,31.0,-100.00,WNW,287,3.0,11.0,96,0.00,,,0.20,8.000000,,2013-01-10 17:43:00,
2013-01-10 10:53:00,32.0,31.0,-100.00,WNW,287,3.0,11.0,96,0.00,,,0.20,8.000000,,2013-01-10 17:53:00,
2013-01-10 11:23:00,33.0,31.0,-100.00,NNE,18,5.0,11.0,91,0.00,,,0.20,17.000000,,2013-01-10 18:23:00,
2013-01-10 11:33:00,33.0,31.0,-100.00,NNE,18,5.0,11.0,91,0.00,,,0.20,17.000000,,2013-01-10 18:33:00,
2013-01-10 11:43:00,33.0,31.0,-100.00,NNE,18,5.0,11.0,91,0.00,,,0.20,17.000000,,2013-01-10 18:43:00,
2013-01-10 11:53:00,33.0,31.0,-100.00,NNE,18,5.0,11.0,91,0.00,,,0.20,17.000000,,2013-01-10 18:53:00,
2013-01-10 12:02:00,33.0,31.0,-100.00,NNE,18,5.0,11.0,91,0.00,,,0.20,17.000000,,2013-01-10 19:02:00,
2013-01-10 12:33:00,32.0,30.0,-100.00,SW,222,3.0,12.0,92,0.00,,,-99.99,17.000000,,2013-01-10 19:33:00,
2013-01-10 12:43:00,32.0,30.0,-100.00,SW,222,3.0,12.0,92,0.00,,,-99.99,17.000000,,2013-01-10 19:43:00,
2013-01-10 12:53:00,32.0,30.0,-100.00,SW,222,3.0,12.0,92,0.00,,,-99.99,17.000000,,2013-01-10 19:53:00,
2013-01-10 13:02:00,32.0,30.0,-100.00,SW,222,3.0,12.0,92,0.00,,,-99.99,17.000000,,2013-01-10 20:02:00,
2013-01-10 13:24:00,31.0,28.0,-100.00,NNE,25,1.0,7.0,88,0.00,,,0.20,17.000000,,2013-01-10 20:24:00,
2013-01-10 13:33:00,31.0,28.0,-100.00,NNE,25,1.0,7.0,88,0.00,,,0.20,17.000000,,2013-01-10 20:33:00,
2013-01-10 13:43:00,31.0,28.0,-100.00,NNE,25,1.0,7.0,88,0.00,,,0.20,17.000000,,2013-01-10 20:43:00,
2013-01-10 13:53:00,31.0,28.0,-100.00,NNE,25,1.0,7.0,88,0.00,,,0.20,17.000000,,2013-01-10 20:53:00,
2013-01-10 14:02:00,31.0,28.0,-100.00,NNE,25,1.0,7.0,88,0.00,,,0.20,17.000000,,2013-01-10 21:02:00,
2013-01-10 14:33:00,28.0,26.0,-100.00,NNE,19,1.0,7.0,91,0.00,,,0.12,9.000000,,2013-01-10 21:33:00,
2013-01-10 14:43:00,28.0,26.0,-100.00,NNE,19,1.0,7.0,91,0.00,,,0.12,9.000000,,2013-01-10 21:43:00,
2013-01-10 14:53:00,28.0,26.0,-100.00,NNE,19,1.0,7.0,91,0.00,,,0.12,9.000000,,2013-01-10 21:53:00,
2013-01-10 15:02:00,28.0,26.0,-100.00,NNE,19,1.0,7.0,91,0.00,,,0.12,9.000000,,2013-01-10 22:02:00,
2013-01-10 15:27:00,24.0,22.0,-100.00,East,82,1.0,7.0,91,0.00,,,0.05,5.000000,,2013-01-10 22:27:00,
2013-01-10 15:34:00,24.0,22.0,-100.00,East,82,1.0,7.0,91,0.00,,,0.05,5.000000,,2013-01-10 22:34:00,
2013-01-10 15:44:00,24.0,22.0,-100.00,East,82,1.0,7.0,91,0.00,,,0.05,5.000000,,2013-01-10 22:44:00,
2013-01-10 16:02:00,24.0,22.0,-100.00,East,82,1.0,7.0,91,0.00,,,0.05,5.000000,,2013-01-10 23:02:00,
2013-01-10 16:33:00,22.0,20.0,-100.00,NNW,337,1.0,6.0,93,0.00,,,0.01,2.000000,,2013-01-10 23:33:00,
2013-01-10 16:43:00,22.0,20.0,-100.00,NNW,337,1.0,6.0,93,0.00,,,0.01,2.000000,,2013-01-10 23:43:00,
2013-01-10 16:53:00,22.0,20.0,-100.00,NNW,337,1.0,6.0,93,0.00,,,0.01,2.000000,,2013-01-10 23:53:00,
2013-01-10 17:02:00,22.0,20.0,-100.00,NNW,337,1.0,6.0,93,0.00,,,0.01,2.000000,,2013-01-11 00:02:00,
2013-01-10 17:33:00,20.0,18.0,-100.00,NNE,29,1.0,5.0,93,0.00,,,0.00,0.000000,,2013-01-11 00:33:00,
2013-01-10 17:43:00,20.0,18.0,-100.00,NNE,29,1.0,5.0,93,0.00,,,0.00,0.000000,,2013-01-11 00:43:00,
2013-01-10 17:53:00,20.0,18.0,-100.00,NNE,29,1.0,5.0,93,0.00,,,0.00,0.000000,,2013-01-11 00:53:00,
2013-01-10 18:02:00,20.0,18.0,-100.00,NNE,29,1.0,5.0,93,0.00,,,0.00,0.000000,,2013-01-11 01:02:00,
2013-01-10 18:34:00,18.0,16.0,-100.00,NNE,20,1.0,4.0,93,0.00,,,0.00,0.000000,,2013-01-11 01:34:00,
2013-01-10 18:43:00,18.0,16.0,-100.00,NNE,20,1.0,4.0,93,0.00,,,0.00,0.000000,,2013-01-11 01:43:00,
2013-01-10 18:53:00,18.0,16.0,-100.00,NNE,20,1.0,4.0,93,0.00,,,0.00,0.000000,,2013-01-11 01:53:00,
2013-01-10 19:02:00,18.0,16.0,-100.00,NNE,20,1.0,4.0,93,0.00,,,0.00,0.000000,,2013-01-11 02:02:00,
2013-01-10 19:24:00,16.0,15.0,-100.00,North,358,1.0,4.0,94,0.00,,,0.00,0.000000,,2013-01-11 02:24:00,
2013-01-10 19:33:00,16.0,15.0,-100.00,North,358,1.0,4.0,94,0.00,,,0.00,0.000000,,2013-01-11 02:33:00,
2013-01-10 19:43:00,16.0,15.0,-100.00,North,358,1.0,4.0,94,0.00,,,0.00,0.000000,,2013-01-11 02:43:00,
2013-01-10 19:53:00,16.0,15.0,-100.00,North,358,1.0,4.0,94,0.00,,,0.00,0.000000,,2013-01-11 02:53:00,
2013-01-10 20:02:00,16.0,15.0,-100.00,North,358,1.0,4.0,94,0.00,,,0.00,0.000000,,2013-01-11 03:02:00,
2013-01-10 20:33:00,16.0,15.0,-100.00,NNW,344,1.0,4.0,94,0.00,,,0.00,0.000000,,2013-01-11 03:33:00,
2013-01-10 20:43:00,16.0,15.0,-100.00,NNW,344,1.0,4.0,94,0.00,,,0.00,0.000000,,2013-01-11 03:43:00,
2013-01-10 20:53:00,16.0,15.0,-100.00,NNW,344,1.0,4.0,94,0.00,,,0.00,0.000000,,2013-01-11 03:53:00,
2013-01-10 21:02:00,16.0,15.0,-100.00,NNW,344,1.0,4.0,94,0.00,,,0.00,0.000000,,2013-01-11 04:02:00,
2013-01-10 21:03:00,15.0,13.0,-100.00,ENE,74,0.0,5.0,93,0.00,,,0.00,0.000000,,2013-01-11 04:03:00,
2013-01-10 21:33:00,15.0,13.0,-100.00,ENE,74,0.0,5.0,93,0.00,,,0.00,0.000000,,2013-01-11 04:33:00,
2013-01-10 21:43:00,15.0,13.0,-100.00,ENE,74,0.0,5.0,93,0.00,,,0.00,0.000000,,2013-01-11 04:43:00,
2013-01-10 21:53:00,15.0,13.0,-100.00,ENE,74,0.0,5.0,93,0.00,,,0.00,0.000000,,2013-01-11 04:53:00,
2013-01-10 22:33:00,14.0,12.0,-100.00,NE,41,0.0,3.0,92,0.00,,,0.00,0.000000,,2013-01-11 05:33:00,
2013-01-10 22:43:00,14.0,12.0,-100.00,NE,41,0.0,3.0,92,0.00,,,0.00,0.000000,,2013-01-11 05:43:00,
2013-01-10 22:52:00,14.0,12.0,-100.00,NE,41,0.0,3.0,92,0.00,,,0.00,0.000000,,2013-01-11 05:52:00,
2013-01-10 23:02:00,14.0,12.0,-100.00,NE,41,0.0,3.0,92,0.00,,,0.00,0.000000,,2013-01-11 06:02:00,
2013-01-10 23:32:00,14.0,12.0,-100.00,NNE,29,0.0,3.0,93,0.00,,,0.00,0.000000,,2013-01-11 06:32:00,
2013-01-10 23:42:00,14.0,12.0,-100.00,NNE,29,0.0,3.0,93,0.00,,,0.00,0.000000,,2013-01-11 06:42:00,
2013-01-10 23:52:00,14.0,12.0,-100.00,NNE,29,0.0,3.0,93,0.00,,,0.00,0.000000,,2013-01-11 06:52:00,